sensor_id;sensor_type;location;lat;lon;timestamp;temperature;humidity
29341;DHT22;16337;59.536;13.468;2023-06-10T00:02:03;7.90;99.90
29341;DHT22;16337;59.536;13.468;2023-06-10T00:04:29;7.90;99.90
29341;DHT22;16337;59.536;13.468;2023-06-10T00:06:55;7.80;99.90
29341;DHT22;16337;59.536;13.468;2023-06-10T00:09:22;7.80;99.90
29341;DHT22;16337;59.536;13.468;2023-06-10T00:11:48;7.70;99.90
29341;DHT22;16337;59.536;13.468;2023-06-10T00:14:14;7.70;99.90
29341;DHT22;16337;59.536;13.468;2023-06-10T00:16:39;7.60;99.90
29341;DHT22;16337;59.536;13.468;2023-06-10T00:19:05;7.60;99.90
29341;DHT22;16337;59.536;13.468;2023-06-10T00:21:33;7.50;99.90
29341;DHT22;16337;59.536;13.468;2023-06-10T00:24:09;7.50;99.90
29341;DHT22;16337;59.536;13.468;2023-06-10T00:26:41;7.40;99.90
29341;DHT22;16337;59.536;13.468;2023-06-10T00:29:07;7.40;99.90
29341;DHT22;16337;59.536;13.468;2023-06-10T00:31:34;7.30;99.90
29341;DHT22;16337;59.536;13.468;2023-06-10T00:34:01;7.30;99.90
29341;DHT22;16337;59.536;13.468;2023-06-10T00:36:28;7.30;99.90
29341;DHT22;16337;59.536;13.468;2023-06-10T00:38:53;7.30;99.90
29341;DHT22;16337;59.536;13.468;2023-06-10T00:41:19;7.20;99.90
29341;DHT22;16337;59.536;13.468;2023-06-10T00:43:45;7.20;99.90
29341;DHT22;16337;59.536;13.468;2023-06-10T00:46:12;7.10;99.90
29341;DHT22;16337;59.536;13.468;2023-06-10T00:48:40;7.10;99.90
29341;DHT22;16337;59.536;13.468;2023-06-10T00:51:06;7.00;99.90
29341;DHT22;16337;59.536;13.468;2023-06-10T00:53:35;7.00;99.90
29341;DHT22;16337;59.536;13.468;2023-06-10T00:56:02;6.90;99.90
29341;DHT22;16337;59.536;13.468;2023-06-10T00:58:28;6.90;99.90
29341;DHT22;16337;59.536;13.468;2023-06-10T01:00:54;6.80;99.90
29341;DHT22;16337;59.536;13.468;2023-06-10T01:03:20;6.80;99.90
29341;DHT22;16337;59.536;13.468;2023-06-10T01:05:53;6.80;99.90
29341;DHT22;16337;59.536;13.468;2023-06-10T01:10:57;6.80;99.90
29341;DHT22;16337;59.536;13.468;2023-06-10T01:13:25;6.80;99.90
29341;DHT22;16337;59.536;13.468;2023-06-10T01:16:00;6.70;99.90
29341;DHT22;16337;59.536;13.468;2023-06-10T01:18:30;6.70;99.90
29341;DHT22;16337;59.536;13.468;2023-06-10T01:20:56;6.60;99.90
29341;DHT22;16337;59.536;13.468;2023-06-10T01:23:23;6.60;99.90
29341;DHT22;16337;59.536;13.468;2023-06-10T01:26:02;6.60;99.90
29341;DHT22;16337;59.536;13.468;2023-06-10T01:34:00;6.50;99.90
29341;DHT22;16337;59.536;13.468;2023-06-10T01:36:27;6.40;99.90
29341;DHT22;16337;59.536;13.468;2023-06-10T01:38:55;6.40;99.90
29341;DHT22;16337;59.536;13.468;2023-06-10T01:41:22;6.40;99.90
29341;DHT22;16337;59.536;13.468;2023-06-10T01:43:48;6.30;99.90
29341;DHT22;16337;59.536;13.468;2023-06-10T01:46:15;6.30;99.90
29341;DHT22;16337;59.536;13.468;2023-06-10T01:48:45;6.30;99.90
29341;DHT22;16337;59.536;13.468;2023-06-10T01:51:10;6.20;99.90
29341;DHT22;16337;59.536;13.468;2023-06-10T01:53:36;6.20;99.90
29341;DHT22;16337;59.536;13.468;2023-06-10T01:56:02;6.20;99.90
29341;DHT22;16337;59.536;13.468;2023-06-10T01:58:27;6.20;99.90
29341;DHT22;16337;59.536;13.468;2023-06-10T02:00:53;6.20;99.90
29341;DHT22;16337;59.536;13.468;2023-06-10T02:03:19;6.10;99.90
29341;DHT22;16337;59.536;13.468;2023-06-10T02:05:45;6.10;99.90
29341;DHT22;16337;59.536;13.468;2023-06-10T02:08:10;6.10;99.90
29341;DHT22;16337;59.536;13.468;2023-06-10T02:10:36;6.10;99.90
29341;DHT22;16337;59.536;13.468;2023-06-10T02:13:02;6.10;99.90
29341;DHT22;16337;59.536;13.468;2023-06-10T02:15:28;6.20;99.90
29341;DHT22;16337;59.536;13.468;2023-06-10T02:17:53;6.20;99.90
29341;DHT22;16337;59.536;13.468;2023-06-10T02:20:20;6.10;99.90
29341;DHT22;16337;59.536;13.468;2023-06-10T02:22:46;6.20;99.90
29341;DHT22;16337;59.536;13.468;2023-06-10T02:25:12;6.20;99.90
29341;DHT22;16337;59.536;13.468;2023-06-10T02:27:37;6.20;99.90
29341;DHT22;16337;59.536;13.468;2023-06-10T02:30:04;6.20;99.90
29341;DHT22;16337;59.536;13.468;2023-06-10T02:32:29;6.20;99.90
29341;DHT22;16337;59.536;13.468;2023-06-10T02:34:55;6.20;99.90
29341;DHT22;16337;59.536;13.468;2023-06-10T02:37:21;6.20;99.90
29341;DHT22;16337;59.536;13.468;2023-06-10T02:39:47;6.30;99.90
29341;DHT22;16337;59.536;13.468;2023-06-10T02:42:12;6.40;99.90
29341;DHT22;16337;59.536;13.468;2023-06-10T02:44:38;6.40;99.90
29341;DHT22;16337;59.536;13.468;2023-06-10T02:47:05;6.50;99.90
29341;DHT22;16337;59.536;13.468;2023-06-10T02:49:30;6.60;99.90
29341;DHT22;16337;59.536;13.468;2023-06-10T02:51:56;6.60;99.90
29341;DHT22;16337;59.536;13.468;2023-06-10T02:54:23;6.70;99.90
29341;DHT22;16337;59.536;13.468;2023-06-10T02:56:49;6.80;99.90
29341;DHT22;16337;59.536;13.468;2023-06-10T02:59:15;6.80;99.90
29341;DHT22;16337;59.536;13.468;2023-06-10T03:01:41;6.90;99.90
29341;DHT22;16337;59.536;13.468;2023-06-10T03:04:07;7.00;99.90
29341;DHT22;16337;59.536;13.468;2023-06-10T03:06:33;7.00;99.90
29341;DHT22;16337;59.536;13.468;2023-06-10T03:09:02;7.10;99.90
29341;DHT22;16337;59.536;13.468;2023-06-10T03:11:31;7.10;99.90
29341;DHT22;16337;59.536;13.468;2023-06-10T03:13:57;7.30;99.90
29341;DHT22;16337;59.536;13.468;2023-06-10T03:16:23;7.30;99.90
29341;DHT22;16337;59.536;13.468;2023-06-10T03:18:50;7.40;99.90
29341;DHT22;16337;59.536;13.468;2023-06-10T03:21:16;7.50;99.90
29341;DHT22;16337;59.536;13.468;2023-06-10T03:23:42;7.60;99.90
29341;DHT22;16337;59.536;13.468;2023-06-10T03:26:08;7.70;99.90
29341;DHT22;16337;59.536;13.468;2023-06-10T03:28:35;7.80;99.90
29341;DHT22;16337;59.536;13.468;2023-06-10T03:31:01;7.90;99.90
29341;DHT22;16337;59.536;13.468;2023-06-10T03:33:27;8.10;99.90
29341;DHT22;16337;59.536;13.468;2023-06-10T03:35:52;8.20;99.90
29341;DHT22;16337;59.536;13.468;2023-06-10T03:38:18;8.30;99.90
29341;DHT22;16337;59.536;13.468;2023-06-10T03:40:44;8.40;99.90
29341;DHT22;16337;59.536;13.468;2023-06-10T03:43:10;8.60;99.90
29341;DHT22;16337;59.536;13.468;2023-06-10T03:45:36;8.70;99.90
29341;DHT22;16337;59.536;13.468;2023-06-10T03:48:02;8.80;99.90
29341;DHT22;16337;59.536;13.468;2023-06-10T03:50:29;8.90;99.90
29341;DHT22;16337;59.536;13.468;2023-06-10T03:52:55;9.00;99.90
29341;DHT22;16337;59.536;13.468;2023-06-10T03:55:21;9.10;99.90
29341;DHT22;16337;59.536;13.468;2023-06-10T03:57:47;9.20;99.90
29341;DHT22;16337;59.536;13.468;2023-06-10T04:00:15;9.40;99.90
29341;DHT22;16337;59.536;13.468;2023-06-10T04:02:41;9.40;99.90
29341;DHT22;16337;59.536;13.468;2023-06-10T04:05:14;9.60;99.90
29341;DHT22;16337;59.536;13.468;2023-06-10T04:07:40;9.60;99.90
29341;DHT22;16337;59.536;13.468;2023-06-10T04:10:08;9.70;99.90
29341;DHT22;16337;59.536;13.468;2023-06-10T04:12:35;9.80;99.90
29341;DHT22;16337;59.536;13.468;2023-06-10T04:15:02;9.90;99.90
29341;DHT22;16337;59.536;13.468;2023-06-10T04:17:28;10.00;99.90
29341;DHT22;16337;59.536;13.468;2023-06-10T04:19:54;10.20;99.90
29341;DHT22;16337;59.536;13.468;2023-06-10T04:22:21;10.30;99.90
29341;DHT22;16337;59.536;13.468;2023-06-10T04:24:48;10.30;99.90
29341;DHT22;16337;59.536;13.468;2023-06-10T04:27:14;10.40;99.90
29341;DHT22;16337;59.536;13.468;2023-06-10T04:29:40;10.40;99.90
29341;DHT22;16337;59.536;13.468;2023-06-10T04:32:06;10.50;99.90
29341;DHT22;16337;59.536;13.468;2023-06-10T04:34:33;10.60;99.90
29341;DHT22;16337;59.536;13.468;2023-06-10T04:36:59;10.70;99.90
29341;DHT22;16337;59.536;13.468;2023-06-10T04:39:25;10.80;99.90
29341;DHT22;16337;59.536;13.468;2023-06-10T04:41:51;11.00;99.90
29341;DHT22;16337;59.536;13.468;2023-06-10T04:44:17;11.10;99.90
29341;DHT22;16337;59.536;13.468;2023-06-10T04:46:44;11.20;99.90
29341;DHT22;16337;59.536;13.468;2023-06-10T04:49:09;11.30;99.90
29341;DHT22;16337;59.536;13.468;2023-06-10T04:51:35;11.40;99.90
29341;DHT22;16337;59.536;13.468;2023-06-10T04:54:01;11.50;99.90
29341;DHT22;16337;59.536;13.468;2023-06-10T04:56:30;11.60;99.90
29341;DHT22;16337;59.536;13.468;2023-06-10T04:58:59;11.70;99.90
29341;DHT22;16337;59.536;13.468;2023-06-10T05:01:26;11.80;99.90
29341;DHT22;16337;59.536;13.468;2023-06-10T05:03:51;11.90;99.90
29341;DHT22;16337;59.536;13.468;2023-06-10T05:06:17;12.10;99.90
29341;DHT22;16337;59.536;13.468;2023-06-10T05:08:43;12.10;99.90
29341;DHT22;16337;59.536;13.468;2023-06-10T05:11:09;12.30;99.90
29341;DHT22;16337;59.536;13.468;2023-06-10T05:13:35;12.40;99.90
29341;DHT22;16337;59.536;13.468;2023-06-10T05:16:01;12.60;99.90
29341;DHT22;16337;59.536;13.468;2023-06-10T05:18:26;12.70;99.90
29341;DHT22;16337;59.536;13.468;2023-06-10T05:20:52;12.70;99.90
29341;DHT22;16337;59.536;13.468;2023-06-10T05:23:19;12.90;99.90
29341;DHT22;16337;59.536;13.468;2023-06-10T05:25:45;13.10;99.90
29341;DHT22;16337;59.536;13.468;2023-06-10T05:28:11;13.20;99.90
29341;DHT22;16337;59.536;13.468;2023-06-10T05:30:37;13.40;99.90
29341;DHT22;16337;59.536;13.468;2023-06-10T05:33:04;13.40;99.90
29341;DHT22;16337;59.536;13.468;2023-06-10T05:35:30;13.40;99.90
29341;DHT22;16337;59.536;13.468;2023-06-10T05:37:56;13.50;99.90
29341;DHT22;16337;59.536;13.468;2023-06-10T05:40:22;13.60;99.90
29341;DHT22;16337;59.536;13.468;2023-06-10T05:42:47;13.80;99.90
29341;DHT22;16337;59.536;13.468;2023-06-10T05:45:13;13.90;99.90
29341;DHT22;16337;59.536;13.468;2023-06-10T05:47:39;14.00;99.90
29341;DHT22;16337;59.536;13.468;2023-06-10T05:50:05;14.30;99.90
29341;DHT22;16337;59.536;13.468;2023-06-10T05:52:36;14.50;99.90
29341;DHT22;16337;59.536;13.468;2023-06-10T05:55:03;14.50;99.90
29341;DHT22;16337;59.536;13.468;2023-06-10T05:57:29;14.60;99.90
29341;DHT22;16337;59.536;13.468;2023-06-10T05:59:55;14.70;99.90
29341;DHT22;16337;59.536;13.468;2023-06-10T06:02:21;14.80;99.90
29341;DHT22;16337;59.536;13.468;2023-06-10T06:04:46;14.90;99.90
29341;DHT22;16337;59.536;13.468;2023-06-10T06:07:12;15.10;99.90
29341;DHT22;16337;59.536;13.468;2023-06-10T06:09:38;15.20;99.90
29341;DHT22;16337;59.536;13.468;2023-06-10T06:12:04;15.90;99.90
29341;DHT22;16337;59.536;13.468;2023-06-10T06:14:31;16.70;99.90
29341;DHT22;16337;59.536;13.468;2023-06-10T06:16:57;16.70;99.90
29341;DHT22;16337;59.536;13.468;2023-06-10T06:19:23;17.10;99.90
29341;DHT22;16337;59.536;13.468;2023-06-10T06:21:49;17.40;99.90
29341;DHT22;16337;59.536;13.468;2023-06-10T06:24:16;17.70;98.40
29341;DHT22;16337;59.536;13.468;2023-06-10T06:26:42;17.90;95.00
29341;DHT22;16337;59.536;13.468;2023-06-10T06:29:07;18.00;94.80
29341;DHT22;16337;59.536;13.468;2023-06-10T06:31:33;18.30;97.30
29341;DHT22;16337;59.536;13.468;2023-06-10T06:33:59;18.40;95.90
29341;DHT22;16337;59.536;13.468;2023-06-10T06:36:25;18.80;95.80
29341;DHT22;16337;59.536;13.468;2023-06-10T06:38:51;18.90;93.80
29341;DHT22;16337;59.536;13.468;2023-06-10T06:41:17;19.10;91.70
29341;DHT22;16337;59.536;13.468;2023-06-10T06:43:43;18.80;91.70
29341;DHT22;16337;59.536;13.468;2023-06-10T06:46:09;18.90;93.30
29341;DHT22;16337;59.536;13.468;2023-06-10T06:48:35;19.20;93.60
29341;DHT22;16337;59.536;13.468;2023-06-10T06:51:00;19.30;92.20
29341;DHT22;16337;59.536;13.468;2023-06-10T06:53:26;19.50;91.70
29341;DHT22;16337;59.536;13.468;2023-06-10T06:55:52;19.60;90.80
29341;DHT22;16337;59.536;13.468;2023-06-10T06:58:18;19.50;89.90
29341;DHT22;16337;59.536;13.468;2023-06-10T07:00:43;19.00;89.20
29341;DHT22;16337;59.536;13.468;2023-06-10T07:03:09;19.40;88.10
29341;DHT22;16337;59.536;13.468;2023-06-10T07:05:35;19.50;87.50
29341;DHT22;16337;59.536;13.468;2023-06-10T07:08:01;19.90;89.50
29341;DHT22;16337;59.536;13.468;2023-06-10T07:10:28;20.30;84.10
29341;DHT22;16337;59.536;13.468;2023-06-10T07:12:54;20.30;84.90
29341;DHT22;16337;59.536;13.468;2023-06-10T07:15:20;20.20;82.10
29341;DHT22;16337;59.536;13.468;2023-06-10T07:17:46;20.30;85.30
29341;DHT22;16337;59.536;13.468;2023-06-10T07:20:12;20.20;84.90
29341;DHT22;16337;59.536;13.468;2023-06-10T07:22:38;20.30;85.80
29341;DHT22;16337;59.536;13.468;2023-06-10T07:25:06;20.70;80.90
29341;DHT22;16337;59.536;13.468;2023-06-10T07:27:32;20.50;80.70
29341;DHT22;16337;59.536;13.468;2023-06-10T07:29:58;20.80;80.50
29341;DHT22;16337;59.536;13.468;2023-06-10T07:32:26;21.00;77.80
29341;DHT22;16337;59.536;13.468;2023-06-10T07:34:52;20.70;76.90
29341;DHT22;16337;59.536;13.468;2023-06-10T07:37:18;20.80;79.10
29341;DHT22;16337;59.536;13.468;2023-06-10T07:39:45;21.20;76.60
29341;DHT22;16337;59.536;13.468;2023-06-10T07:42:11;21.10;77.30
29341;DHT22;16337;59.536;13.468;2023-06-10T07:44:36;21.00;76.80
29341;DHT22;16337;59.536;13.468;2023-06-10T07:47:02;21.40;74.30
29341;DHT22;16337;59.536;13.468;2023-06-10T07:49:28;21.50;73.70
29341;DHT22;16337;59.536;13.468;2023-06-10T07:51:54;21.40;72.30
29341;DHT22;16337;59.536;13.468;2023-06-10T07:54:23;21.20;74.50
29341;DHT22;16337;59.536;13.468;2023-06-10T07:56:49;21.00;74.70
29341;DHT22;16337;59.536;13.468;2023-06-10T07:59:16;21.10;73.90
29341;DHT22;16337;59.536;13.468;2023-06-10T08:01:42;21.40;72.20
29341;DHT22;16337;59.536;13.468;2023-06-10T08:04:08;21.50;73.00
29341;DHT22;16337;59.536;13.468;2023-06-10T08:06:34;21.50;71.60
29341;DHT22;16337;59.536;13.468;2023-06-10T08:09:00;22.00;76.20
29341;DHT22;16337;59.536;13.468;2023-06-10T08:11:26;22.30;74.90
29341;DHT22;16337;59.536;13.468;2023-06-10T08:13:54;21.90;68.60
29341;DHT22;16337;59.536;13.468;2023-06-10T08:16:19;21.60;68.30
29341;DHT22;16337;59.536;13.468;2023-06-10T08:18:45;21.60;66.90
29341;DHT22;16337;59.536;13.468;2023-06-10T08:21:11;21.00;71.80
29341;DHT22;16337;59.536;13.468;2023-06-10T08:23:37;21.00;70.40
29341;DHT22;16337;59.536;13.468;2023-06-10T08:26:02;20.90;75.40
29341;DHT22;16337;59.536;13.468;2023-06-10T08:28:28;21.20;72.60
29341;DHT22;16337;59.536;13.468;2023-06-10T08:30:54;21.50;70.60
29341;DHT22;16337;59.536;13.468;2023-06-10T08:33:20;21.70;74.00
29341;DHT22;16337;59.536;13.468;2023-06-10T08:35:45;21.60;73.00
29341;DHT22;16337;59.536;13.468;2023-06-10T08:38:11;21.50;71.50
29341;DHT22;16337;59.536;13.468;2023-06-10T08:40:37;22.10;72.30
29341;DHT22;16337;59.536;13.468;2023-06-10T08:43:07;22.70;68.80
29341;DHT22;16337;59.536;13.468;2023-06-10T08:45:36;23.00;72.90
29341;DHT22;16337;59.536;13.468;2023-06-10T08:48:05;23.40;66.70
29341;DHT22;16337;59.536;13.468;2023-06-10T08:50:35;22.90;72.50
29341;DHT22;16337;59.536;13.468;2023-06-10T08:53:05;22.70;75.10
29341;DHT22;16337;59.536;13.468;2023-06-10T08:55:42;22.80;71.00
29341;DHT22;16337;59.536;13.468;2023-06-10T08:58:10;22.80;69.50
29341;DHT22;16337;59.536;13.468;2023-06-10T09:00:38;23.00;69.10
29341;DHT22;16337;59.536;13.468;2023-06-10T09:03:04;23.20;72.60
29341;DHT22;16337;59.536;13.468;2023-06-10T09:05:33;23.10;70.40
29341;DHT22;16337;59.536;13.468;2023-06-10T09:08:00;22.90;70.10
29341;DHT22;16337;59.536;13.468;2023-06-10T09:10:27;23.40;68.60
29341;DHT22;16337;59.536;13.468;2023-06-10T09:12:53;23.80;70.90
29341;DHT22;16337;59.536;13.468;2023-06-10T09:15:19;24.10;69.70
29341;DHT22;16337;59.536;13.468;2023-06-10T09:17:44;24.10;67.70
29341;DHT22;16337;59.536;13.468;2023-06-10T09:20:11;23.80;69.80
29341;DHT22;16337;59.536;13.468;2023-06-10T09:22:37;24.30;68.70
29341;DHT22;16337;59.536;13.468;2023-06-10T09:25:07;23.60;66.90
29341;DHT22;16337;59.536;13.468;2023-06-10T09:27:52;23.20;68.50
29341;DHT22;16337;59.536;13.468;2023-06-10T09:30:26;23.50;68.00
29341;DHT22;16337;59.536;13.468;2023-06-10T09:32:54;23.30;69.50
29341;DHT22;16337;59.536;13.468;2023-06-10T09:35:25;23.10;66.10
29341;DHT22;16337;59.536;13.468;2023-06-10T09:37:52;23.40;69.10
29341;DHT22;16337;59.536;13.468;2023-06-10T09:40:18;23.70;66.40
29341;DHT22;16337;59.536;13.468;2023-06-10T09:42:44;23.80;66.80
29341;DHT22;16337;59.536;13.468;2023-06-10T09:45:10;23.50;66.70
29341;DHT22;16337;59.536;13.468;2023-06-10T09:47:36;23.60;65.30
29341;DHT22;16337;59.536;13.468;2023-06-10T09:50:02;23.80;67.90
29341;DHT22;16337;59.536;13.468;2023-06-10T09:52:29;23.20;66.60
29341;DHT22;16337;59.536;13.468;2023-06-10T09:55:00;23.50;69.20
29341;DHT22;16337;59.536;13.468;2023-06-10T09:57:31;24.00;66.00
29341;DHT22;16337;59.536;13.468;2023-06-10T09:59:58;23.80;66.60
29341;DHT22;16337;59.536;13.468;2023-06-10T10:02:23;22.90;64.90
29341;DHT22;16337;59.536;13.468;2023-06-10T10:04:49;23.10;67.50
29341;DHT22;16337;59.536;13.468;2023-06-10T10:07:15;23.60;68.00
29341;DHT22;16337;59.536;13.468;2023-06-10T10:09:42;23.70;63.80
29341;DHT22;16337;59.536;13.468;2023-06-10T10:12:11;23.70;65.70
29341;DHT22;16337;59.536;13.468;2023-06-10T10:14:38;23.30;66.60
29341;DHT22;16337;59.536;13.468;2023-06-10T10:17:10;23.60;65.90
29341;DHT22;16337;59.536;13.468;2023-06-10T10:19:53;24.40;64.00
29341;DHT22;16337;59.536;13.468;2023-06-10T10:22:25;24.70;66.60
29341;DHT22;16337;59.536;13.468;2023-06-10T10:25:02;25.00;65.00
29341;DHT22;16337;59.536;13.468;2023-06-10T10:27:36;25.20;62.60
29341;DHT22;16337;59.536;13.468;2023-06-10T10:30:06;24.90;65.30
29341;DHT22;16337;59.536;13.468;2023-06-10T10:32:39;25.20;62.40
29341;DHT22;16337;59.536;13.468;2023-06-10T10:35:17;24.90;65.90
29341;DHT22;16337;59.536;13.468;2023-06-10T10:37:44;25.40;61.90
29341;DHT22;16337;59.536;13.468;2023-06-10T10:40:11;25.40;63.00
29341;DHT22;16337;59.536;13.468;2023-06-10T10:42:38;25.00;59.50
29341;DHT22;16337;59.536;13.468;2023-06-10T10:45:05;24.70;63.50
29341;DHT22;16337;59.536;13.468;2023-06-10T10:47:33;24.40;64.50
29341;DHT22;16337;59.536;13.468;2023-06-10T10:50:01;24.30;61.10
29341;DHT22;16337;59.536;13.468;2023-06-10T10:52:53;24.80;63.60
29341;DHT22;16337;59.536;13.468;2023-06-10T10:55:20;25.10;63.30
29341;DHT22;16337;59.536;13.468;2023-06-10T10:57:59;25.40;61.90
29341;DHT22;16337;59.536;13.468;2023-06-10T11:00:32;25.60;60.80
29341;DHT22;16337;59.536;13.468;2023-06-10T11:03:08;25.70;61.60
29341;DHT22;16337;59.536;13.468;2023-06-10T11:05:48;26.40;62.40
29341;DHT22;16337;59.536;13.468;2023-06-10T11:10:58;27.00;63.80
29341;DHT22;16337;59.536;13.468;2023-06-10T11:13:26;27.60;59.00
29341;DHT22;16337;59.536;13.468;2023-06-10T11:15:56;27.00;61.20
29341;DHT22;16337;59.536;13.468;2023-06-10T11:18:26;26.40;58.40
29341;DHT22;16337;59.536;13.468;2023-06-10T11:20:57;26.80;58.90
29341;DHT22;16337;59.536;13.468;2023-06-10T11:28:42;27.20;58.70
29341;DHT22;16337;59.536;13.468;2023-06-10T11:31:09;26.60;61.00
29341;DHT22;16337;59.536;13.468;2023-06-10T11:33:44;27.30;60.10
29341;DHT22;16337;59.536;13.468;2023-06-10T11:36:10;26.50;59.70
29341;DHT22;16337;59.536;13.468;2023-06-10T11:38:36;26.50;58.60
29341;DHT22;16337;59.536;13.468;2023-06-10T11:41:02;26.60;60.20
29341;DHT22;16337;59.536;13.468;2023-06-10T11:43:28;27.20;60.00
29341;DHT22;16337;59.536;13.468;2023-06-10T11:45:55;27.50;61.40
29341;DHT22;16337;59.536;13.468;2023-06-10T11:48:22;28.00;60.00
29341;DHT22;16337;59.536;13.468;2023-06-10T11:50:47;28.20;57.70
29341;DHT22;16337;59.536;13.468;2023-06-10T11:53:13;28.10;56.20
29341;DHT22;16337;59.536;13.468;2023-06-10T11:58:19;28.20;57.60
29341;DHT22;16337;59.536;13.468;2023-06-10T12:00:49;28.40;57.80
29341;DHT22;16337;59.536;13.468;2023-06-10T12:03:15;28.10;56.20
29341;DHT22;16337;59.536;13.468;2023-06-10T12:05:58;28.00;57.70
29341;DHT22;16337;59.536;13.468;2023-06-10T12:08:25;28.00;55.00
29341;DHT22;16337;59.536;13.468;2023-06-10T12:10:51;28.00;57.10
29341;DHT22;16337;59.536;13.468;2023-06-10T12:13:17;28.00;58.70
29341;DHT22;16337;59.536;13.468;2023-06-10T12:15:46;27.80;58.20
29341;DHT22;16337;59.536;13.468;2023-06-10T12:18:22;27.30;56.70
29341;DHT22;16337;59.536;13.468;2023-06-10T12:20:49;27.10;56.50
29341;DHT22;16337;59.536;13.468;2023-06-10T12:23:16;27.30;57.90
29341;DHT22;16337;59.536;13.468;2023-06-10T12:25:55;28.20;57.90
29341;DHT22;16337;59.536;13.468;2023-06-10T12:28:25;29.00;54.80
29341;DHT22;16337;59.536;13.468;2023-06-10T12:31:07;28.00;55.00
29341;DHT22;16337;59.536;13.468;2023-06-10T12:33:33;27.80;55.60
29341;DHT22;16337;59.536;13.468;2023-06-10T12:35:59;28.10;57.30
29341;DHT22;16337;59.536;13.468;2023-06-10T12:38:26;28.50;55.80
29341;DHT22;16337;59.536;13.468;2023-06-10T12:41:01;28.70;57.80
29341;DHT22;16337;59.536;13.468;2023-06-10T12:43:27;29.30;54.90
29341;DHT22;16337;59.536;13.468;2023-06-10T12:45:53;28.70;53.20
29341;DHT22;16337;59.536;13.468;2023-06-10T12:48:24;28.30;53.90
29341;DHT22;16337;59.536;13.468;2023-06-10T12:50:54;27.40;53.30
29341;DHT22;16337;59.536;13.468;2023-06-10T12:53:21;26.40;56.00
29341;DHT22;16337;59.536;13.468;2023-06-10T12:55:49;26.90;54.70
29341;DHT22;16337;59.536;13.468;2023-06-10T12:58:15;27.30;56.60
29341;DHT22;16337;59.536;13.468;2023-06-10T13:00:42;27.90;56.00
29341;DHT22;16337;59.536;13.468;2023-06-10T13:03:09;27.80;52.60
29341;DHT22;16337;59.536;13.468;2023-06-10T13:05:36;28.20;54.60
29341;DHT22;16337;59.536;13.468;2023-06-10T13:08:07;28.60;54.60
29341;DHT22;16337;59.536;13.468;2023-06-10T13:10:35;29.10;54.60
29341;DHT22;16337;59.536;13.468;2023-06-10T13:13:01;29.20;52.70
29341;DHT22;16337;59.536;13.468;2023-06-10T13:15:27;29.00;52.50
29341;DHT22;16337;59.536;13.468;2023-06-10T13:17:53;29.20;52.90
29341;DHT22;16337;59.536;13.468;2023-06-10T13:20:20;29.00;55.70
29341;DHT22;16337;59.536;13.468;2023-06-10T13:22:46;28.50;51.80
29341;DHT22;16337;59.536;13.468;2023-06-10T13:25:13;28.80;52.90
29341;DHT22;16337;59.536;13.468;2023-06-10T13:27:38;28.60;50.40
29341;DHT22;16337;59.536;13.468;2023-06-10T13:30:09;28.50;51.60
29341;DHT22;16337;59.536;13.468;2023-06-10T13:32:36;28.60;52.70
29341;DHT22;16337;59.536;13.468;2023-06-10T13:35:02;28.40;53.80
29341;DHT22;16337;59.536;13.468;2023-06-10T13:37:29;28.80;51.60
29341;DHT22;16337;59.536;13.468;2023-06-10T13:39:55;28.20;51.80
29341;DHT22;16337;59.536;13.468;2023-06-10T13:42:21;28.00;54.20
29341;DHT22;16337;59.536;13.468;2023-06-10T13:44:47;28.40;53.10
29341;DHT22;16337;59.536;13.468;2023-06-10T13:47:17;28.40;55.00
29341;DHT22;16337;59.536;13.468;2023-06-10T13:49:43;28.50;53.80
29341;DHT22;16337;59.536;13.468;2023-06-10T13:52:08;28.10;53.10
29341;DHT22;16337;59.536;13.468;2023-06-10T13:54:34;27.90;52.10
29341;DHT22;16337;59.536;13.468;2023-06-10T13:57:03;28.20;55.00
29341;DHT22;16337;59.536;13.468;2023-06-10T13:59:29;28.40;52.50
29341;DHT22;16337;59.536;13.468;2023-06-10T14:01:54;28.30;51.20
29341;DHT22;16337;59.536;13.468;2023-06-10T14:04:22;28.40;51.50
29341;DHT22;16337;59.536;13.468;2023-06-10T14:06:48;28.60;52.00
29341;DHT22;16337;59.536;13.468;2023-06-10T14:09:14;28.50;52.90
29341;DHT22;16337;59.536;13.468;2023-06-10T14:11:41;28.30;53.30
29341;DHT22;16337;59.536;13.468;2023-06-10T14:14:07;27.90;52.50
29341;DHT22;16337;59.536;13.468;2023-06-10T14:16:33;27.80;53.80
29341;DHT22;16337;59.536;13.468;2023-06-10T14:18:59;28.00;52.80
29341;DHT22;16337;59.536;13.468;2023-06-10T14:21:24;27.90;52.70
29341;DHT22;16337;59.536;13.468;2023-06-10T14:23:51;28.50;54.40
29341;DHT22;16337;59.536;13.468;2023-06-10T14:26:19;28.20;51.60
29341;DHT22;16337;59.536;13.468;2023-06-10T14:28:47;27.60;51.90
29341;DHT22;16337;59.536;13.468;2023-06-10T14:31:13;27.40;51.70
29341;DHT22;16337;59.536;13.468;2023-06-10T14:33:38;27.70;52.60
29341;DHT22;16337;59.536;13.468;2023-06-10T14:36:05;27.90;54.20
29341;DHT22;16337;59.536;13.468;2023-06-10T14:38:30;28.00;51.90
29341;DHT22;16337;59.536;13.468;2023-06-10T14:40:56;27.80;51.90
29341;DHT22;16337;59.536;13.468;2023-06-10T14:43:22;27.80;52.60
29341;DHT22;16337;59.536;13.468;2023-06-10T14:45:48;28.10;53.10
29341;DHT22;16337;59.536;13.468;2023-06-10T14:48:13;28.10;54.10
29341;DHT22;16337;59.536;13.468;2023-06-10T14:50:39;27.80;51.90
29341;DHT22;16337;59.536;13.468;2023-06-10T14:53:06;27.50;52.80
29341;DHT22;16337;59.536;13.468;2023-06-10T14:55:32;27.60;51.60
29341;DHT22;16337;59.536;13.468;2023-06-10T14:57:58;27.60;52.80
29341;DHT22;16337;59.536;13.468;2023-06-10T15:00:24;27.50;55.20
29341;DHT22;16337;59.536;13.468;2023-06-10T15:02:51;27.00;53.60
29341;DHT22;16337;59.536;13.468;2023-06-10T15:05:17;26.70;51.20
29341;DHT22;16337;59.536;13.468;2023-06-10T15:07:45;26.00;51.70
29341;DHT22;16337;59.536;13.468;2023-06-10T15:10:11;26.00;54.20
29341;DHT22;16337;59.536;13.468;2023-06-10T15:12:37;26.40;53.50
29341;DHT22;16337;59.536;13.468;2023-06-10T15:15:03;26.70;55.00
29341;DHT22;16337;59.536;13.468;2023-06-10T15:17:29;26.70;51.90
29341;DHT22;16337;59.536;13.468;2023-06-10T15:19:55;26.70;53.30
29341;DHT22;16337;59.536;13.468;2023-06-10T15:22:21;26.70;54.20
29341;DHT22;16337;59.536;13.468;2023-06-10T15:24:47;26.80;53.00
29341;DHT22;16337;59.536;13.468;2023-06-10T15:27:13;26.50;52.70
29341;DHT22;16337;59.536;13.468;2023-06-10T15:29:39;26.40;49.50
29341;DHT22;16337;59.536;13.468;2023-06-10T15:32:05;26.30;49.50
29341;DHT22;16337;59.536;13.468;2023-06-10T15:34:31;26.00;52.80
29341;DHT22;16337;59.536;13.468;2023-06-10T15:36:56;25.70;52.20
29341;DHT22;16337;59.536;13.468;2023-06-10T15:39:22;25.70;51.70